Terminal Aerodrome Forecast
Issued by NWS

Home | Current Version | Previous Version | Graphics & Text | Print | Product List | Glossary On
Versions: 1 2 3 4 5 6 7 8 9 10 11 12 13 14 15
000
FTUS43 KIWX 021100
TAFSBN
TAF
KSBN 021121Z 0212/0312 29008KT P6SM SCT030
     FM030000 16003KT P6SM OVC100
     FM031100 15008KT 5SM -SN OVC040=

USA.gov is the U.S. government's official web portal to all federal, state and local government web resources and services.